KFAF

Felker AAF Airport

Fort Eustis, Virginia, USA
METAR KFAF 241356Z AUTO 26003KT 10SM -DZ FEW100 SCT140 27/24 A2987 RMK AO2 SLP118 P0000 T02730237 $
Observed Flight Rules
Jun-24 @ 13:56 UTC (an hour ago) Visual Flight Rules
Wind Visibility Clouds Conditions
260° at 3 knots 10 miles
  • Few at 10,000' AGL
  • Scattered at 14,000' AGL
  • Light Drizzle
Temperatures Readings Precipitation
Current 27°C / 81°F
Dewpoint 24°C / 75°F
Humidity 84%
Altimeter 29.87" Hg
Pressure 1011.8 hPa
Elevation 4
Current Rain 0.005
METAR KFAF 241356Z AUTO 26003KT 10SM -DZ FEW100 SCT140 27/24 A2987 RMK AO2 SLP118 P0000 T02730237 $
Observed Flight Rules
Jun-24 @ 13:56 UTC
(an hour ago)
VFR
Wind Visibility
260° at 3 knots 10 miles
Clouds
  • Few at 10,000' AGL
  • Scattered at 14,000' AGL
Conditions
  • Light Drizzle
Temperature Dewpoint
27°C / 81°F 24°C / 75°F
Humidity Altimeter Pressure
84% 29.87" Hg 1011.8 hPa
Current Rain
0.005